Terminal Aerodrome Forecast
Issued by NWS Omaha/Valley, NE

Home | Current Version | Previous Version | Text Only | Print | Product List | Glossary Off
Versions: 1 2 3 4 5 6 7 8 9 10 11 12 13 14 15 16 17 18 19 20

000
FTUS43 KOAX 180400 AAB
TAFOFK
TAF AMD
KOFK 180400Z 1804/1824 03012G19KT P6SM OVC040
      TEMPO 1804/1806 3SM -SHRASN OVC015
     FM180600 03014G21KT 3SM -SN OVC025
      TEMPO 1806/1808 1SM -SHRASN OVC007
     FM180800 34012G24KT 2SM -SN OVC010
      TEMPO 1808/1812 1/2SM SN OVC006
     FM181300 33015G25KT 4SM -SN OVC010
     FM181600 34020G30KT P6SM OVC010=

USA.gov is the U.S. government's official web portal to all federal, state and local government web resources and services.